Time;durP1;ratioP1;P1;durP2;ratioP2;P2;SDS_P1;SDS_P2;PMS_P1;PMS_P2;Temp;Humidity;BMP_temperature;BMP_pressure;BME280_temperature;BME280_humidity;BME280_pressure;Samples;Min_cycle;Max_cycle;Signal;HPM_P1;HPM_P2
2021/06/19 00:01:19;;;;;;;6.43;5.50;;;25.20;65.20;;;;;;10415540;28;20018;-58
2021/06/19 00:06:19;;;;;;;6.15;5.45;;;25.20;65.20;;;;;;10430553;28;20033;-57
2021/06/19 00:11:20;;;;;;;6.55;5.95;;;25.20;65.20;;;;;;10413829;28;20033;-58
2021/06/19 00:16:22;;;;;;;6.32;5.20;;;25.20;65.30;;;;;;10413544;28;20112;-56
2021/06/19 00:21:23;;;;;;;6.00;5.43;;;25.20;65.30;;;;;;10413678;28;20385;-57
2021/06/19 00:26:23;;;;;;;5.60;5.10;;;25.20;65.20;;;;;;10414421;28;20064;-58
2021/06/19 00:31:24;;;;;;;6.13;5.35;;;25.20;65.20;;;;;;10414275;28;20480;-57
2021/06/19 00:36:25;;;;;;;5.82;5.20;;;25.20;65.30;;;;;;10413997;28;20049;-57
2021/06/19 00:41:26;;;;;;;6.95;6.25;;;25.20;65.30;;;;;;10418951;28;20032;-57
2021/06/19 00:46:27;;;;;;;6.72;6.00;;;25.20;65.30;;;;;;10415339;28;20076;-57
2021/06/19 00:51:28;;;;;;;6.00;5.50;;;25.20;65.30;;;;;;10429103;28;20080;-56
2021/06/19 00:56:32;;;;;;;5.68;5.18;;;25.20;65.20;;;;;;10413536;28;20492;-58
2021/06/19 01:01:33;;;;;;;6.25;5.65;;;25.20;65.20;;;;;;10423787;28;20577;-58
2021/06/19 01:06:35;;;;;;;6.00;4.95;;;25.20;65.20;;;;;;10427033;28;20466;-57
2021/06/19 01:11:37;;;;;;;5.72;5.22;;;25.20;65.20;;;;;;10427024;28;20041;-57
2021/06/19 01:16:38;;;;;;;6.22;5.53;;;25.20;65.20;;;;;;10426862;28;20456;-58
2021/06/19 01:21:39;;;;;;;4.93;4.43;;;25.20;65.20;;;;;;10425727;28;20025;-57
2021/06/19 01:26:40;;;;;;;6.80;5.40;;;25.20;65.20;;;;;;10426789;28;20025;-56
2021/06/19 01:31:40;;;;;;;6.40;5.80;;;25.10;65.10;;;;;;10426767;28;20037;-58
2021/06/19 01:36:41;;;;;;;5.45;4.90;;;25.10;65.10;;;;;;10426407;28;20026;-58
2021/06/19 01:41:42;;;;;;;5.07;4.57;;;25.10;65.10;;;;;;10433859;28;20047;-57
2021/06/19 01:46:43;;;;;;;5.43;4.93;;;25.10;65.00;;;;;;10426374;28;20041;-58
2021/06/19 01:51:44;;;;;;;5.43;4.93;;;25.10;65.00;;;;;;10426392;28;20040;-57
2021/06/19 01:56:44;;;;;;;6.03;4.63;;;25.10;65.00;;;;;;10426182;28;20474;-58
2021/06/19 02:01:45;;;;;;;5.72;4.50;;;25.10;65.00;;;;;;10426205;28;20117;-58
2021/06/19 02:06:46;;;;;;;4.93;4.53;;;25.10;64.90;;;;;;10425997;28;20477;-57
2021/06/19 02:11:47;;;;;;;5.18;4.68;;;25.10;65.40;;;;;;10421256;28;20056;-57
2021/06/19 02:16:47;;;;;;;5.93;4.80;;;25.10;64.80;;;;;;10419413;28;20084;-58
2021/06/19 02:21:48;;;;;;;5.80;5.03;;;25.10;64.90;;;;;;10419232;28;20104;-57
2021/06/19 02:26:49;;;;;;;5.00;4.50;;;25.10;64.90;;;;;;10419168;28;20053;-57
2021/06/19 02:31:49;;;;;;;5.05;4.55;;;25.10;64.90;;;;;;10418853;28;20138;-58
2021/06/19 02:36:50;;;;;;;4.93;4.50;;;25.10;64.90;;;;;;10418487;28;20072;-57
2021/06/19 02:41:51;;;;;;;5.57;4.88;;;25.10;64.90;;;;;;10426650;28;20517;-58
2021/06/19 02:46:51;;;;;;;4.68;4.18;;;25.10;64.90;;;;;;10418004;28;20128;-58
2021/06/19 02:51:52;;;;;;;5.20;4.70;;;25.10;64.80;;;;;;10418537;28;20116;-57
2021/06/19 02:56:53;;;;;;;4.82;4.32;;;25.00;64.70;;;;;;10417751;28;20117;-58
2021/06/19 03:01:53;;;;;;;4.70;4.22;;;25.00;64.70;;;;;;10417795;28;20021;-58
2021/06/19 03:06:54;;;;;;;5.57;4.35;;;25.00;64.70;;;;;;10416512;28;20034;-58
2021/06/19 03:11:55;;;;;;;4.80;4.13;;;25.00;64.80;;;;;;10417074;28;20029;-58
2021/06/19 03:16:57;;;;;;;5.15;4.57;;;25.00;64.70;;;;;;10417595;28;20068;-57
2021/06/19 03:22:01;;;;;;;5.10;4.60;;;25.00;64.80;;;;;;10416558;28;20516;-57
2021/06/19 03:27:02;;;;;;;4.88;4.10;;;25.00;64.70;;;;;;10414499;28;20037;-57
2021/06/19 03:32:05;;;;;;;4.72;4.32;;;25.00;64.70;;;;;;10415104;28;20031;-57
2021/06/19 03:37:06;;;;;;;5.22;4.18;;;25.00;64.70;;;;;;10416608;28;20061;-57
2021/06/19 03:42:07;;;;;;;4.40;4.00;;;25.00;64.80;;;;;;10423484;28;20032;-58
2021/06/19 03:47:07;;;;;;;3.95;3.28;;;25.00;64.80;;;;;;10416424;28;20057;-57
2021/06/19 03:52:08;;;;;;;4.93;4.28;;;25.00;64.80;;;;;;10416283;28;20033;-58
2021/06/19 03:57:10;;;;;;;4.38;3.97;;;25.00;64.70;;;;;;10415988;28;20026;-57
2021/06/19 04:02:11;;;;;;;4.68;4.18;;;25.00;65.40;;;;;;10415485;28;20040;-57
2021/06/19 04:07:12;;;;;;;4.25;3.85;;;25.00;64.70;;;;;;10415717;28;20060;-58
2021/06/19 04:12:13;;;;;;;4.65;4.20;;;25.00;64.70;;;;;;10415775;28;20033;-58
2021/06/19 04:17:14;;;;;;;4.40;3.65;;;25.00;64.70;;;;;;10413733;28;20132;-57
2021/06/19 04:22:15;;;;;;;4.25;3.85;;;25.00;64.70;;;;;;10415000;28;20091;-58
2021/06/19 04:27:19;;;;;;;5.05;3.60;;;24.90;64.70;;;;;;10414639;28;20419;-57
2021/06/19 04:32:20;;;;;;;3.97;3.65;;;25.00;64.80;;;;;;10414315;28;20562;-58
2021/06/19 04:37:26;;;;;;;4.13;3.72;;;25.00;64.70;;;;;;10413877;28;20036;-57
2021/06/19 04:42:34;;;;;;;4.13;3.58;;;24.90;64.70;;;;;;10421337;28;20025;-58
2021/06/19 04:47:36;;;;;;;4.13;3.73;;;24.90;64.70;;;;;;10414162;28;20498;-56
2021/06/19 04:52:41;;;;;;;4.38;3.97;;;24.90;64.70;;;;;;10412864;28;20105;-57
2021/06/19 04:57:55;;;;;;;4.47;4.07;;;24.90;64.70;;;;;;10414091;28;20539;-57
2021/06/19 05:02:57;;;;;;;3.55;3.25;;;25.00;64.80;;;;;;10413769;28;20018;-57
2021/06/19 05:07:58;;;;;;;6.38;4.57;;;24.90;64.80;;;;;;10413677;28;20030;-58
2021/06/19 05:12:58;;;;;;;4.32;3.92;;;24.90;64.70;;;;;;10413735;28;20030;-57
2021/06/19 05:17:59;;;;;;;4.53;4.13;;;24.90;64.80;;;;;;10413635;28;20049;-57
2021/06/19 05:23:00;;;;;;;4.82;3.63;;;24.90;64.80;;;;;;10413575;28;20040;-57
2021/06/19 05:28:01;;;;;;;3.90;3.60;;;24.90;64.80;;;;;;10413510;28;20034;-58
2021/06/19 05:33:02;;;;;;;5.43;3.88;;;24.90;64.80;;;;;;10404912;28;20034;-58
2021/06/19 05:38:02;;;;;;;4.30;3.90;;;24.90;64.90;;;;;;10409250;28;20160;-58
2021/06/19 05:43:03;;;;;;;5.25;4.22;;;24.90;64.80;;;;;;10419933;28;20036;-58
2021/06/19 05:48:05;;;;;;;4.80;4.00;;;24.80;64.80;;;;;;10419267;28;20037;-58
2021/06/19 05:53:05;;;;;;;4.60;4.20;;;24.90;64.80;;;;;;10420599;28;20099;-57
2021/06/19 05:58:08;;;;;;;4.55;4.03;;;24.90;64.90;;;;;;10420510;28;20114;-58
2021/06/19 06:03:09;;;;;;;5.22;3.80;;;24.90;64.80;;;;;;10420438;28;20038;-57
2021/06/19 06:08:10;;;;;;;4.78;4.25;;;24.90;64.90;;;;;;10418787;28;20152;-57
2021/06/19 06:13:10;;;;;;;4.45;4.05;;;24.90;64.80;;;;;;10419755;28;20435;-58
2021/06/19 06:18:11;;;;;;;4.70;4.20;;;24.90;64.80;;;;;;10419763;28;20101;-58
2021/06/19 06:23:12;;;;;;;5.35;4.25;;;24.90;64.80;;;;;;10419435;28;20025;-57
2021/06/19 06:28:12;;;;;;;4.40;4.00;;;24.90;64.70;;;;;;10419506;28;20382;-58
2021/06/19 06:33:13;;;;;;;4.55;4.15;;;24.90;64.70;;;;;;10418853;28;20128;-57
2021/06/19 06:38:14;;;;;;;4.70;4.20;;;24.90;64.70;;;;;;10417721;28;20063;-57
2021/06/19 06:43:14;;;;;;;4.97;4.35;;;24.90;64.80;;;;;;10425635;28;20061;-57
2021/06/19 06:48:16;;;;;;;4.80;4.30;;;24.80;64.70;;;;;;10416905;28;20099;-57
2021/06/19 06:53:16;;;;;;;4.57;4.15;;;24.80;64.60;;;;;;10418417;28;20026;-58
2021/06/19 06:58:17;;;;;;;4.93;4.38;;;24.80;64.60;;;;;;10417534;28;20025;-58
2021/06/19 07:03:18;;;;;;;4.95;4.55;;;24.90;64.60;;;;;;10417943;28;20041;-58
2021/06/19 07:08:19;;;;;;;4.47;4.07;;;24.90;64.50;;;;;;10417706;28;20537;-58
2021/06/19 07:13:19;;;;;;;5.47;4.30;;;24.90;64.40;;;;;;10417678;28;20112;-57
2021/06/19 07:18:20;;;;;;;5.88;4.45;;;24.90;64.40;;;;;;10417437;28;20060;-57
2021/06/19 07:23:22;;;;;;;5.28;4.47;;;24.90;64.40;;;;;;10417367;28;20492;-57
2021/06/19 07:28:24;;;;;;;6.40;5.22;;;24.90;64.40;;;;;;10417202;28;20041;-57
2021/06/19 07:33:24;;;;;;;4.95;4.43;;;24.90;64.40;;;;;;10416743;28;20034;-58
2021/06/19 07:38:28;;;;;;;5.03;4.53;;;24.90;64.30;;;;;;10416637;28;20075;-57
2021/06/19 07:43:28;;;;;;;4.95;4.45;;;24.90;64.30;;;;;;10423780;28;20033;-57
2021/06/19 07:48:29;;;;;;;5.18;4.38;;;24.90;64.20;;;;;;10415964;28;20490;-56
2021/06/19 07:53:30;;;;;;;5.20;4.63;;;24.90;64.20;;;;;;10415930;28;20477;-57
2021/06/19 07:58:31;;;;;;;6.82;5.05;;;24.90;64.20;;;;;;10416016;28;20026;-57
2021/06/19 08:03:31;;;;;;;5.38;4.88;;;24.90;64.20;;;;;;10415364;28;20108;-57
2021/06/19 08:08:32;;;;;;;5.20;4.70;;;24.90;64.20;;;;;;10414537;28;20486;-58
2021/06/19 08:13:32;;;;;;;5.38;4.68;;;24.90;64.20;;;;;;10415277;28;20120;-57
2021/06/19 08:18:33;;;;;;;5.63;5.07;;;24.90;64.10;;;;;;10415061;28;20104;-58
2021/06/19 08:23:34;;;;;;;5.97;5.03;;;24.90;64.10;;;;;;10415060;28;20112;-58
2021/06/19 08:28:35;;;;;;;5.80;5.20;;;24.90;64.10;;;;;;10414732;28;20026;-57
2021/06/19 08:33:36;;;;;;;5.93;4.88;;;24.90;64.00;;;;;;10414763;28;20036;-57
2021/06/19 08:38:36;;;;;;;6.15;4.70;;;24.90;64.00;;;;;;10414612;28;20032;-58
2021/06/19 08:43:41;;;;;;;5.65;5.05;;;24.90;63.90;;;;;;10421396;28;20046;-57
2021/06/19 08:48:47;;;;;;;5.90;4.88;;;24.90;63.80;;;;;;10413925;28;20038;-56
2021/06/19 08:53:49;;;;;;;6.60;5.38;;;24.90;63.80;;;;;;10413801;28;20067;-55
2021/06/19 08:58:51;;;;;;;5.35;4.85;;;24.90;63.80;;;;;;10414001;28;20030;-58
2021/06/19 09:03:52;;;;;;;6.97;5.75;;;24.90;63.80;;;;;;10413862;28;20032;-57
2021/06/19 09:09:11;;;;;;;6.03;5.43;;;24.90;63.70;;;;;;10412730;28;20040;-58
2021/06/19 09:14:17;;;;;;;6.15;5.50;;;24.90;63.80;;;;;;10413776;28;20030;-58
2021/06/19 09:19:39;;;;;;;5.85;5.15;;;24.90;63.80;;;;;;10414580;28;20385;-57
2021/06/19 09:24:59;;;;;;;7.57;5.45;;;25.00;63.80;;;;;;10420901;28;20044;-57
2021/06/19 09:30:17;;;;;;;5.35;4.85;;;25.00;63.70;;;;;;10421810;28;20413;-58
2021/06/19 09:35:33;;;;;;;5.95;4.88;;;24.90;63.70;;;;;;10421212;28;20044;-56
2021/06/19 09:40:38;;;;;;;6.35;5.75;;;24.90;63.70;;;;;;10421363;28;20022;-58
2021/06/19 09:45:57;;;;;;;6.78;6.13;;;24.90;63.70;;;;;;10428198;28;20029;-57
2021/06/19 09:51:24;;;;;;;;;;;24.90;64.20;;;;;;10421238;28;20092;-58
2021/06/19 09:56:24;;;;;;;5.90;5.10;;;24.90;63.60;;;;;;10420393;28;19920;-57
2021/06/19 10:01:35;;;;;;;6.07;5.45;;;24.90;63.60;;;;;;10420375;28;20044;-57
2021/06/19 10:06:37;;;;;;;6.43;5.82;;;24.90;63.70;;;;;;10420458;28;20029;-56
2021/06/19 10:11:39;;;;;;;6.55;5.47;;;25.00;63.70;;;;;;10419234;28;20374;-58
2021/06/19 10:16:41;;;;;;;6.07;5.45;;;25.00;63.60;;;;;;10419024;28;20494;-57
2021/06/19 10:21:43;;;;;;;7.03;5.95;;;25.00;64.20;;;;;;10435234;28;20026;-56
2021/06/19 10:26:45;;;;;;;5.35;4.85;;;25.00;63.60;;;;;;10420181;28;20049;-56
2021/06/19 10:31:50;;;;;;;6.13;5.53;;;25.00;63.60;;;;;;10417710;28;20026;-57
2021/06/19 10:36:58;;;;;;;6.00;5.40;;;25.00;63.60;;;;;;10419126;28;20109;-56
2021/06/19 10:41:59;;;;;;;6.38;5.47;;;25.00;63.60;;;;;;10426394;28;20051;-57
2021/06/19 10:47:03;;;;;;;5.93;5.32;;;25.00;63.50;;;;;;10417541;28;20140;-57
2021/06/19 10:52:23;;;;;;;5.80;5.20;;;25.00;63.50;;;;;;10418595;28;20041;-57
2021/06/19 10:57:48;;;;;;;6.57;5.50;;;25.00;63.50;;;;;;10418403;28;20037;-57
2021/06/19 11:02:55;;;;;;;5.55;4.97;;;25.00;63.50;;;;;;10418314;28;20029;-58
2021/06/19 11:07:56;;;;;;;5.75;5.00;;;25.00;63.60;;;;;;10418242;28;20115;-57
2021/06/19 11:13:29;;;;;;;6.20;5.63;;;25.00;63.60;;;;;;10417676;28;20017;-57
2021/06/19 11:18:50;;;;;;;6.88;6.18;;;25.00;63.50;;;;;;10417527;28;20056;-55
2021/06/19 11:24:00;;;;;;;6.30;5.70;;;25.00;63.50;;;;;;10417679;28;20030;-58
2021/06/19 11:29:41;;;;;;;6.55;5.75;;;25.00;63.50;;;;;;10417246;28;20551;-58
2021/06/19 11:34:42;;;;;;;6.70;6.07;;;25.00;63.50;;;;;;10416860;28;20033;-58
2021/06/19 11:39:43;;;;;;;6.22;5.63;;;25.00;63.40;;;;;;10416654;28;20109;-57
2021/06/19 11:44:46;;;;;;;6.38;5.78;;;25.00;63.40;;;;;;10417820;28;20036;-57
2021/06/19 11:49:49;;;;;;;7.30;6.60;;;25.00;63.40;;;;;;10399887;28;20045;-57
2021/06/19 11:54:52;;;;;;;7.97;6.55;;;25.00;63.40;;;;;;10414720;28;20640;-56
2021/06/19 12:00:12;;;;;;;8.00;7.03;;;25.00;63.40;;;;;;10415687;28;20496;-58
2021/06/19 12:05:17;;;;;;;7.18;6.47;;;25.00;63.40;;;;;;10415615;28;20119;-57
2021/06/19 12:10:31;;;;;;;7.07;6.38;;;25.00;64.00;;;;;;10405537;28;20421;-57
2021/06/19 12:15:34;;;;;;;6.82;6.13;;;25.00;63.40;;;;;;10414103;28;20478;-58
2021/06/19 12:20:34;;;;;;;7.70;6.90;;;25.00;63.40;;;;;;10415900;28;20474;-58
2021/06/19 12:25:36;;;;;;;7.72;6.57;;;25.00;63.40;;;;;;10411101;28;20152;-58
2021/06/19 12:30:36;;;;;;;7.03;6.35;;;25.00;63.30;;;;;;10414483;28;20049;-57
2021/06/19 12:35:37;;;;;;;7.75;6.97;;;25.00;63.40;;;;;;10413292;28;20063;-57
2021/06/19 12:40:38;;;;;;;8.60;7.05;;;25.00;63.40;;;;;;10413357;28;20030;-57
2021/06/19 12:45:48;;;;;;;7.78;6.85;;;25.00;63.40;;;;;;10413229;28;20155;-57
2021/06/19 12:50:52;;;;;;;7.85;7.05;;;25.00;63.40;;;;;;10400972;28;20049;-58
2021/06/19 12:55:56;;;;;;;7.45;6.75;;;25.00;63.40;;;;;;10413620;28;20064;-57
2021/06/19 13:00:57;;;;;;;7.68;6.93;;;25.00;63.30;;;;;;10420094;28;20523;-57
2021/06/19 13:06:00;;;;;;;7.88;7.18;;;25.00;63.40;;;;;;10413778;28;20083;-55
2021/06/19 13:11:27;;;;;;;7.05;6.35;;;25.00;63.30;;;;;;10412660;28;20076;-56
2021/06/19 13:16:37;;;;;;;7.93;7.07;;;25.00;63.30;;;;;;10413676;28;20025;-58
2021/06/19 13:21:41;;;;;;;8.10;7.15;;;25.00;63.30;;;;;;10413672;28;20148;-58
2021/06/19 13:26:42;;;;;;;7.85;7.05;;;25.00;63.40;;;;;;10401160;28;20116;-57
2021/06/19 13:31:47;;;;;;;7.43;6.72;;;25.10;63.40;;;;;;10413424;28;20569;-58
2021/06/19 13:36:50;;;;;;;7.80;7.03;;;25.10;63.50;;;;;;10413949;28;20524;-56
2021/06/19 13:41:53;;;;;;;8.25;7.45;;;25.10;63.50;;;;;;10413308;28;20128;-56
2021/06/19 13:46:55;;;;;;;8.07;7.28;;;25.10;63.40;;;;;;10413127;28;20459;-57
2021/06/19 13:52:02;;;;;;;7.90;7.10;;;25.10;63.40;;;;;;10399874;28;20404;-58
2021/06/19 13:57:03;;;;;;;8.45;7.60;;;25.10;63.40;;;;;;10417963;28;20412;-58
2021/06/19 14:02:04;;;;;;;9.05;8.15;;;25.10;63.50;;;;;;10415548;28;20105;-57
2021/06/19 14:07:06;;;;;;;7.55;6.75;;;25.10;63.40;;;;;;10414620;28;20026;-58
2021/06/19 14:12:07;;;;;;;8.55;7.57;;;25.10;63.40;;;;;;10420375;28;20123;-57
2021/06/19 14:17:08;;;;;;;8.80;7.00;;;25.10;63.40;;;;;;10419983;28;20344;-57
2021/06/19 14:22:09;;;;;;;8.50;7.63;;;25.10;63.40;;;;;;10419888;28;20049;-58
2021/06/19 14:27:20;;;;;;;8.30;7.50;;;25.10;63.40;;;;;;10419576;28;20103;-58
2021/06/19 14:32:21;;;;;;;7.53;6.80;;;25.20;63.50;;;;;;10419403;28;20029;-58
2021/06/19 14:37:21;;;;;;;8.65;7.57;;;25.20;63.50;;;;;;10419197;28;20091;-57
2021/06/19 14:42:22;;;;;;;8.30;7.45;;;25.10;63.40;;;;;;10419233;28;20485;-58
2021/06/19 14:47:23;;;;;;;7.95;7.15;;;25.10;63.40;;;;;;10418677;28;20556;-58
2021/06/19 14:52:24;;;;;;;8.25;7.45;;;25.10;63.40;;;;;;10418620;28;20029;-57
2021/06/19 14:57:25;;;;;;;8.07;7.38;;;25.10;63.40;;;;;;10424980;28;20116;-58
2021/06/19 15:02:26;;;;;;;8.15;7.32;;;25.10;63.40;;;;;;10405031;28;20028;-58
2021/06/19 15:07:26;;;;;;;7.53;6.82;;;25.10;63.40;;;;;;10417936;28;20474;-57
2021/06/19 15:12:27;;;;;;;7.57;6.88;;;25.10;63.40;;;;;;10418001;28;20068;-58
2021/06/19 15:17:28;;;;;;;7.82;7.13;;;25.10;63.40;;;;;;10417112;28;20068;-57
2021/06/19 15:22:28;;;;;;;8.82;7.90;;;25.10;63.40;;;;;;10417346;28;20112;-57
2021/06/19 15:27:29;;;;;;;9.02;7.90;;;25.10;63.40;;;;;;10417622;28;20107;-57
2021/06/19 15:32:30;;;;;;;10.32;8.50;;;25.10;63.40;;;;;;10415899;28;20048;-57
2021/06/19 15:37:31;;;;;;;7.22;6.53;;;25.10;63.40;;;;;;10416687;28;20450;-57
2021/06/19 15:42:34;;;;;;;7.95;7.15;;;25.10;63.40;;;;;;10416799;28;20025;-58
2021/06/19 15:47:36;;;;;;;8.88;8.07;;;25.10;63.40;;;;;;10416173;28;20567;-57
2021/06/19 15:52:37;;;;;;;7.90;7.10;;;25.10;63.40;;;;;;10416509;28;20041;-58
2021/06/19 15:57:38;;;;;;;8.40;7.60;;;25.10;63.40;;;;;;10422217;28;20067;-57
2021/06/19 16:02:38;;;;;;;7.72;7.03;;;25.10;63.40;;;;;;10416037;28;20105;-57
2021/06/19 16:07:39;;;;;;;8.48;7.68;;;25.10;63.30;;;;;;10415884;28;20355;-58
2021/06/19 16:12:40;;;;;;;8.77;7.93;;;25.10;63.30;;;;;;10415715;28;20426;-57
2021/06/19 16:17:40;;;;;;;8.63;7.82;;;25.10;63.30;;;;;;10415339;28;20107;-57
2021/06/19 16:22:41;;;;;;;7.65;6.88;;;25.10;63.30;;;;;;10415131;28;20048;-57
2021/06/19 16:27:42;;;;;;;7.95;6.93;;;25.10;63.30;;;;;;10413606;28;20510;-57
2021/06/19 16:32:43;;;;;;;8.27;7.47;;;25.10;63.30;;;;;;10414227;28;20567;-58
2021/06/19 16:37:45;;;;;;;8.50;7.70;;;25.10;63.20;;;;;;10414545;28;20061;-57
2021/06/19 16:42:47;;;;;;;8.15;7.38;;;25.10;63.20;;;;;;10414696;28;20036;-54
2021/06/19 16:47:50;;;;;;;9.27;8.38;;;25.10;63.20;;;;;;10414555;28;20053;-57
2021/06/19 16:52:50;;;;;;;8.38;7.55;;;25.00;63.20;;;;;;10414028;28;20034;-57
2021/06/19 16:57:51;;;;;;;7.97;7.20;;;25.10;63.80;;;;;;10421927;28;20079;-56
2021/06/19 17:02:52;;;;;;;8.13;7.32;;;25.10;63.20;;;;;;10414252;28;20152;-58
2021/06/19 17:07:53;;;;;;;9.38;8.48;;;25.10;63.20;;;;;;10413915;28;20087;-57
2021/06/19 17:12:53;;;;;;;8.63;7.78;;;25.10;63.20;;;;;;10413868;28;20033;-58
2021/06/19 17:17:54;;;;;;;8.48;7.63;;;25.10;63.80;;;;;;10413640;28;20109;-57
2021/06/19 17:22:55;;;;;;;8.55;7.75;;;25.10;63.20;;;;;;10413787;28;20100;-58
2021/06/19 17:27:56;;;;;;;7.53;6.82;;;25.10;63.20;;;;;;10412544;28;20025;-57
2021/06/19 17:32:57;;;;;;;8.40;7.53;;;25.00;63.10;;;;;;10412334;28;20095;-57
2021/06/19 17:37:57;;;;;;;8.95;8.10;;;25.10;63.20;;;;;;10413383;28;20091;-57
2021/06/19 17:42:58;;;;;;;8.80;8.00;;;25.00;63.10;;;;;;10418110;28;20075;-57
2021/06/19 17:47:59;;;;;;;8.75;7.95;;;25.00;63.20;;;;;;10420992;28;20200;-57
2021/06/19 17:53:06;;;;;;;8.73;7.93;;;25.00;63.20;;;;;;10420784;28;20033;-58
2021/06/19 17:58:07;;;;;;;8.52;7.65;;;25.00;63.10;;;;;;10427066;28;20025;-58
2021/06/19 18:03:08;;;;;;;8.60;7.82;;;25.00;63.10;;;;;;10420604;28;20389;-57
2021/06/19 18:08:09;;;;;;;9.38;8.48;;;25.00;63.10;;;;;;10420430;28;20433;-57
2021/06/19 18:13:10;;;;;;;9.13;8.30;;;25.00;63.20;;;;;;10420119;28;20562;-57
2021/06/19 18:18:12;;;;;;;9.15;8.35;;;25.00;63.20;;;;;;10420117;28;20465;-56
2021/06/19 18:23:15;;;;;;;8.40;7.60;;;25.00;63.20;;;;;;10419720;28;20105;-57
2021/06/19 18:28:16;;;;;;;9.23;8.40;;;25.00;63.20;;;;;;10419522;28;20036;-57
2021/06/19 18:33:23;;;;;;;7.78;7.07;;;25.00;63.20;;;;;;10419489;28;20092;-56
2021/06/19 18:38:24;;;;;;;8.63;7.82;;;25.00;63.30;;;;;;10419148;28;20037;-57
2021/06/19 18:43:24;;;;;;;7.90;7.20;;;25.00;63.30;;;;;;10419139;28;20382;-57
2021/06/19 18:48:25;;;;;;;9.43;8.50;;;25.00;63.30;;;;;;10418868;28;20381;-57
2021/06/19 18:53:26;;;;;;;10.23;9.15;;;25.00;63.30;;;;;;10404381;28;20116;-57
2021/06/19 18:58:26;;;;;;;8.48;7.68;;;25.00;63.20;;;;;;10426148;28;20382;-57
2021/06/19 19:03:27;;;;;;;9.32;8.43;;;25.00;63.30;;;;;;10418610;28;20061;-58
2021/06/19 19:08:28;;;;;;;8.68;7.88;;;25.00;63.30;;;;;;10418174;28;20068;-57
2021/06/19 19:13:28;;;;;;;8.68;7.85;;;25.00;63.30;;;;;;10416703;28;20513;-57
2021/06/19 19:18:29;;;;;;;9.38;8.25;;;25.00;63.30;;;;;;10417681;28;20033;-57
2021/06/19 19:23:31;;;;;;;8.95;8.15;;;25.00;63.30;;;;;;10417663;28;20474;-57
2021/06/19 19:28:31;;;;;;;9.15;8.25;;;25.00;63.30;;;;;;10417434;28;20025;-57
2021/06/19 19:33:32;;;;;;;8.35;7.65;;;24.90;63.20;;;;;;10417085;28;20037;-57
2021/06/19 19:38:33;;;;;;;8.70;7.90;;;24.90;63.20;;;;;;10416686;28;20117;-57
2021/06/19 19:43:34;;;;;;;8.48;7.68;;;24.90;63.20;;;;;;10417000;28;20378;-58
2021/06/19 19:48:36;;;;;;;9.00;8.20;;;24.90;63.30;;;;;;10416300;28;20077;-57
2021/06/19 19:53:37;;;;;;;8.25;7.45;;;24.90;63.30;;;;;;10401976;28;20450;-57
2021/06/19 19:58:38;;;;;;;8.85;8.05;;;24.90;63.30;;;;;;10423880;28;20040;-57
2021/06/19 20:03:39;;;;;;;8.52;7.72;;;24.90;63.30;;;;;;10415705;28;20104;-57
2021/06/19 20:08:40;;;;;;;9.02;7.68;;;24.90;63.30;;;;;;10414982;28;20064;-58
2021/06/19 20:13:41;;;;;;;8.95;8.15;;;24.90;63.30;;;;;;10415862;28;20029;-58
2021/06/19 20:18:42;;;;;;;7.80;7.10;;;24.90;63.30;;;;;;10415476;28;20053;-57
2021/06/19 20:23:43;;;;;;;8.23;7.43;;;24.90;63.30;;;;;;10415370;28;20382;-57
2021/06/19 20:28:44;;;;;;;8.27;7.47;;;24.90;63.20;;;;;;10415197;28;20105;-58
2021/06/19 20:33:45;;;;;;;10.25;8.50;;;24.90;63.30;;;;;;10415583;28;20041;-57
2021/06/19 20:38:45;;;;;;;9.68;8.77;;;24.90;63.20;;;;;;10414950;28;20040;-57
2021/06/19 20:43:49;;;;;;;7.85;7.05;;;24.90;63.20;;;;;;10414706;28;20501;-57
2021/06/19 20:48:50;;;;;;;8.63;7.82;;;24.80;63.10;;;;;;10413860;28;20060;-57
2021/06/19 20:53:51;;;;;;;8.43;7.63;;;24.80;63.10;;;;;;10400460;28;20032;-58
2021/06/19 20:58:53;;;;;;;8.70;7.90;;;24.80;63.10;;;;;;10421780;28;20024;-57
2021/06/19 21:03:53;;;;;;;8.18;7.43;;;24.80;63.10;;;;;;10413710;28;20040;-57
2021/06/19 21:08:54;;;;;;;7.82;7.03;;;24.80;63.10;;;;;;10412433;28;20037;-57
2021/06/19 21:13:56;;;;;;;8.48;7.68;;;24.80;63.10;;;;;;10413707;28;20075;-56
2021/06/19 21:18:57;;;;;;;8.63;7.82;;;24.80;63.10;;;;;;10420497;28;20025;-56
2021/06/19 21:23:57;;;;;;;8.45;7.65;;;24.80;63.10;;;;;;10421767;28;20412;-57
2021/06/19 21:28:58;;;;;;;7.65;6.95;;;24.80;63.00;;;;;;10436922;28;20116;-57
2021/06/19 21:33:59;;;;;;;8.02;7.32;;;24.80;63.00;;;;;;10421132;28;20456;-58
2021/06/19 21:39:00;;;;;;;9.00;8.10;;;24.80;63.00;;;;;;10421227;28;20106;-57
2021/06/19 21:44:01;;;;;;;8.27;7.47;;;24.80;63.00;;;;;;10420184;28;20030;-57
2021/06/19 21:49:02;;;;;;;8.18;7.43;;;24.80;63.00;;;;;;10420436;28;20409;-57
2021/06/19 21:54:03;;;;;;;7.70;7.00;;;24.80;63.00;;;;;;10420483;28;20030;-55
2021/06/19 21:59:03;;;;;;;9.30;8.45;;;24.80;63.00;;;;;;10427728;28;20029;-57
2021/06/19 22:04:04;;;;;;;8.57;7.78;;;24.80;63.00;;;;;;10420304;28;20051;-57
2021/06/19 22:09:05;;;;;;;8.20;7.50;;;24.80;63.00;;;;;;10420147;28;20037;-57
2021/06/19 22:14:06;;;;;;;8.02;7.32;;;24.80;62.90;;;;;;10419828;28;20041;-57
2021/06/19 22:19:06;;;;;;;8.45;7.70;;;24.70;62.90;;;;;;10418494;28;20033;-57
2021/06/19 22:24:08;;;;;;;8.65;7.85;;;24.70;62.90;;;;;;10419533;28;20438;-57
2021/06/19 22:29:09;;;;;;;9.27;8.38;;;24.70;62.90;;;;;;10417892;28;20037;-57
2021/06/19 22:34:10;;;;;;;8.25;7.45;;;24.70;63.00;;;;;;10419199;28;20039;-57
2021/06/19 22:39:11;;;;;;;9.23;8.30;;;24.70;63.00;;;;;;10419213;28;20034;-58
2021/06/19 22:44:12;;;;;;;8.93;8.13;;;24.70;63.10;;;;;;10418785;28;20033;-58
2021/06/19 22:49:12;;;;;;;8.82;8.02;;;24.70;63.00;;;;;;10418433;28;20057;-57
2021/06/19 22:54:13;;;;;;;9.50;8.70;;;24.70;63.10;;;;;;10418081;28;20068;-57
2021/06/19 22:59:14;;;;;;;8.68;7.88;;;24.70;63.10;;;;;;10441549;28;20026;-57
2021/06/19 23:04:15;;;;;;;8.95;7.95;;;24.70;63.20;;;;;;10417952;28;20120;-58
2021/06/19 23:09:15;;;;;;;7.78;7.07;;;24.70;63.20;;;;;;10417862;28;20029;-57
2021/06/19 23:14:16;;;;;;;8.65;7.93;;;24.70;63.20;;;;;;10418016;28;20029;-58
2021/06/19 23:19:17;;;;;;;7.75;7.07;;;24.70;63.20;;;;;;10416105;28;20049;-58
2021/06/19 23:24:17;;;;;;;8.43;7.65;;;24.70;63.30;;;;;;10417148;28;20120;-58
2021/06/19 23:29:18;;;;;;;9.18;8.38;;;24.70;63.20;;;;;;10416866;28;20029;-57
2021/06/19 23:34:19;;;;;;;8.48;7.70;;;24.70;63.30;;;;;;10417032;28;20087;-58
2021/06/19 23:39:23;;;;;;;8.73;7.93;;;24.70;63.30;;;;;;10416235;28;20494;-57
2021/06/19 23:44:23;;;;;;;9.18;8.38;;;24.70;63.40;;;;;;10416218;28;20516;-57
2021/06/19 23:49:24;;;;;;;8.77;7.97;;;24.60;63.30;;;;;;10415888;28;20045;-58
2021/06/19 23:54:25;;;;;;;8.77;7.97;;;24.60;63.30;;;;;;10415900;28;20029;-58
2021/06/19 23:59:28;;;;;;;8.98;8.18;;;24.60;63.40;;;;;;10423493;28;20049;-58
